Time;durP1;ratioP1;P1;durP2;ratioP2;P2;SDS_P1;SDS_P2;PMS_P1;PMS_P2;Temp;Humidity;BMP_temperature;BMP_pressure;BME280_temperature;BME280_humidity;BME280_pressure;Samples;Min_cycle;Max_cycle;Signal;HPM_P1;HPM_P2
2021/05/22 00:00:50;;;;;;;13.10;5.57;;;;;;;;;;4418671;32;20322;-57
2021/05/22 00:03:15;;;;;;;12.70;5.05;;;;;;;;;;4418491;32;20648;-56
2021/05/22 00:05:41;;;;;;;8.57;5.47;;;;;;;;;;4418834;32;20254;-56
2021/05/22 00:08:06;;;;;;;7.47;5.65;;;;;;;;;;4418816;32;20299;-56
2021/05/22 00:10:32;;;;;;;12.70;6.45;;;;;;;;;;4405364;32;20308;-56
2021/05/22 00:12:58;;;;;;;14.53;6.30;;;;;;;;;;4418856;32;20229;-56
2021/05/22 00:15:23;;;;;;;16.00;7.23;;;;;;;;;;4405023;32;20422;-56
2021/05/22 00:17:49;;;;;;;7.97;5.77;;;;;;;;;;4418708;32;20213;-56
2021/05/22 00:20:15;;;;;;;9.67;5.03;;;;;;;;;;4419048;32;20312;-55
2021/05/22 00:22:41;;;;;;;4.17;3.60;;;;;;;;;;4418920;32;20232;-56
2021/05/22 00:25:08;;;;;;;5.43;4.50;;;;;;;;;;4418771;32;20357;-57
2021/05/22 00:27:34;;;;;;;5.87;4.67;;;;;;;;;;4419096;32;20221;-56
2021/05/22 00:29:59;;;;;;;8.63;4.13;;;;;;;;;;4418735;32;20284;-58
2021/05/22 00:32:25;;;;;;;6.30;4.83;;;;;;;;;;4418462;32;20236;-56
2021/05/22 00:34:50;;;;;;;5.83;4.93;;;;;;;;;;4418487;32;20248;-56
2021/05/22 00:37:15;;;;;;;8.37;5.53;;;;;;;;;;4418733;32;20244;-56
2021/05/22 00:39:41;;;;;;;10.90;6.63;;;;;;;;;;4418380;32;20209;-56
2021/05/22 00:42:07;;;;;;;8.33;6.10;;;;;;;;;;4418662;32;20367;-56
2021/05/22 00:44:32;;;;;;;10.87;5.77;;;;;;;;;;4418240;32;20236;-56
2021/05/22 00:47:00;;;;;;;8.57;5.37;;;;;;;;;;4418651;32;20252;-56
2021/05/22 00:49:26;;;;;;;6.70;4.73;;;;;;;;;;4418413;32;20253;-56
2021/05/22 00:51:51;;;;;;;10.10;5.10;;;;;;;;;;4418517;32;20236;-57
2021/05/22 00:54:17;;;;;;;6.20;4.23;;;;;;;;;;4417995;32;20661;-56
2021/05/22 00:56:43;;;;;;;6.47;4.10;;;;;;;;;;4418345;32;20589;-56
2021/05/22 00:59:14;;;;;;;5.87;4.33;;;;;;;;;;4418137;32;20577;-56
2021/05/22 01:01:39;;;;;;;5.93;5.20;;;;;;;;;;4418141;32;20667;-56
2021/05/22 01:04:05;;;;;;;9.07;5.30;;;;;;;;;;4418112;32;20255;-56
2021/05/22 01:06:32;;;;;;;9.47;5.40;;;;;;;;;;4418174;32;20221;-56
2021/05/22 01:09:01;;;;;;;8.27;5.10;;;;;;;;;;4418014;32;20514;-56
2021/05/22 01:11:27;;;;;;;5.13;4.10;;;;;;;;;;4418177;32;20326;-56
2021/05/22 01:13:59;;;;;;;8.07;3.67;;;;;;;;;;4417859;32;20296;-55
2021/05/22 01:16:24;;;;;;;5.37;4.57;;;;;;;;;;4418474;32;20213;-56
2021/05/22 01:18:51;;;;;;;14.70;4.23;;;;;;;;;;4417861;32;20271;-55
2021/05/22 01:21:17;;;;;;;4.83;3.87;;;;;;;;;;4417954;32;20228;-56
2021/05/22 01:23:50;;;;;;;10.73;7.50;;;;;;;;;;4417805;32;20213;-56
2021/05/22 01:26:16;;;;;;;18.63;16.87;;;;;;;;;;4404148;32;20249;-56
2021/05/22 01:28:44;;;;;;;12.33;8.70;;;;;;;;;;4404063;32;20225;-55
2021/05/22 01:31:10;;;;;;;8.10;6.00;;;;;;;;;;4417779;32;20780;-56
2021/05/22 01:33:37;;;;;;;5.57;4.57;;;;;;;;;;4417618;32;20205;-56
2021/05/22 01:36:03;;;;;;;3.87;3.33;;;;;;;;;;4417600;32;20280;-55
2021/05/22 01:38:28;;;;;;;4.83;3.70;;;;;;;;;;4417755;32;20256;-55
2021/05/22 01:40:54;;;;;;;4.87;3.93;;;;;;;;;;4417668;32;20390;-56
2021/05/22 01:43:20;;;;;;;4.40;3.57;;;;;;;;;;4417843;32;20225;-56
2021/05/22 01:45:51;;;;;;;7.17;4.77;;;;;;;;;;4417875;32;20655;-55
2021/05/22 01:48:24;;;;;;;11.53;5.90;;;;;;;;;;4417705;32;20280;-55
2021/05/22 01:50:57;;;;;;;8.23;6.03;;;;;;;;;;4417879;32;20271;-55
2021/05/22 01:53:23;;;;;;;5.10;4.20;;;;;;;;;;4417596;32;20225;-55
2021/05/22 01:55:50;;;;;;;6.57;4.20;;;;;;;;;;4417416;32;20300;-56
2021/05/22 01:58:16;;;;;;;5.87;4.43;;;;;;;;;;4417459;32;20213;-55
2021/05/22 02:00:44;;;;;;;11.80;4.10;;;;;;;;;;4417327;32;20760;-56
2021/05/22 02:03:27;;;;;;;7.57;4.47;;;;;;;;;;4416704;32;20221;-55
2021/05/22 02:05:54;;;;;;;7.03;4.43;;;;;;;;;;4417123;32;20556;-55
2021/05/22 02:08:21;;;;;;;6.33;4.13;;;;;;;;;;4417328;32;20343;-56
2021/05/22 02:10:50;;;;;;;6.70;4.60;;;;;;;;;;4417460;32;20298;-56
2021/05/22 02:13:17;;;;;;;5.53;4.07;;;;;;;;;;4417209;32;20233;-55
2021/05/22 02:15:49;;;;;;;9.27;3.93;;;;;;;;;;4417181;32;20595;-55
2021/05/22 02:18:16;;;;;;;3.53;3.23;;;;;;;;;;4417059;32;20660;-55
2021/05/22 02:20:44;;;;;;;10.50;3.87;;;;;;;;;;4417492;32;20224;-55
2021/05/22 02:23:13;;;;;;;3.50;2.90;;;;;;;;;;4417163;32;20216;-55
2021/05/22 02:25:38;;;;;;;6.53;3.33;;;;;;;;;;4417341;32;20197;-55
2021/05/22 02:28:06;;;;;;;7.47;4.00;;;;;;;;;;4417428;32;20544;-56
2021/05/22 02:30:34;;;;;;;3.97;3.30;;;;;;;;;;4417023;32;20208;-55
2021/05/22 02:33:02;;;;;;;5.77;3.57;;;;;;;;;;4417126;32;20229;-55
2021/05/22 02:35:29;;;;;;;4.93;3.13;;;;;;;;;;4417212;32;20249;-55
2021/05/22 02:37:55;;;;;;;5.63;4.47;;;;;;;;;;4417155;32;20243;-55
2021/05/22 02:40:25;;;;;;;6.17;3.37;;;;;;;;;;4417230;32;20267;-55
2021/05/22 02:42:56;;;;;;;8.60;3.53;;;;;;;;;;4416822;32;20272;-55
2021/05/22 02:45:26;;;;;;;8.63;3.40;;;;;;;;;;4417242;32;20255;-55
2021/05/22 02:47:55;;;;;;;4.87;3.50;;;;;;;;;;4416996;32;20277;-55
2021/05/22 02:50:22;;;;;;;8.27;4.27;;;;;;;;;;4417205;32;20205;-55
2021/05/22 02:52:49;;;;;;;7.43;5.87;;;;;;;;;;4416740;32;20245;-55
2021/05/22 02:55:15;;;;;;;5.60;4.70;;;;;;;;;;4417201;32;20239;-55
2021/05/22 02:57:42;;;;;;;8.00;4.77;;;;;;;;;;4417211;32;20229;-55
2021/05/22 03:00:08;;;;;;;6.63;5.00;;;;;;;;;;4416891;32;20299;-55
2021/05/22 03:02:35;;;;;;;7.20;4.00;;;;;;;;;;4416800;32;20309;-55
2021/05/22 03:05:02;;;;;;;7.60;4.50;;;;;;;;;;4416856;32;20267;-56
2021/05/22 03:07:28;;;;;;;10.30;4.87;;;;;;;;;;4417308;32;20221;-55
2021/05/22 03:09:53;;;;;;;11.17;5.77;;;;;;;;;;4417130;32;20286;-55
2021/05/22 03:12:22;;;;;;;9.77;5.30;;;;;;;;;;4417042;32;20245;-55
2021/05/22 03:14:47;;;;;;;5.60;5.03;;;;;;;;;;4416670;32;20228;-55
2021/05/22 03:17:13;;;;;;;7.10;5.07;;;;;;;;;;4417325;32;20549;-55
2021/05/22 03:19:38;;;;;;;7.13;4.70;;;;;;;;;;4419527;32;20223;-55
2021/05/22 03:22:04;;;;;;;12.00;4.70;;;;;;;;;;4420000;32;20252;-55
2021/05/22 03:24:29;;;;;;;7.43;4.63;;;;;;;;;;4419983;32;20221;-55
2021/05/22 03:26:55;;;;;;;6.57;4.43;;;;;;;;;;4419824;32;20257;-55
2021/05/22 03:29:21;;;;;;;8.20;4.17;;;;;;;;;;4419587;32;20213;-55
2021/05/22 03:31:46;;;;;;;5.97;4.43;;;;;;;;;;4419343;32;20910;-55
2021/05/22 03:34:12;;;;;;;6.10;4.90;;;;;;;;;;4419604;32;20682;-55
2021/05/22 03:36:37;;;;;;;7.70;4.50;;;;;;;;;;4419730;32;20259;-55
2021/05/22 03:39:04;;;;;;;5.93;4.50;;;;;;;;;;4419660;32;20656;-55
2021/05/22 03:41:29;;;;;;;15.23;5.10;;;;;;;;;;4419332;32;20330;-55
2021/05/22 03:43:55;;;;;;;5.20;4.37;;;;;;;;;;4419493;32;20221;-55
2021/05/22 03:46:20;;;;;;;9.70;4.23;;;;;;;;;;4419211;32;20711;-55
2021/05/22 03:48:46;;;;;;;6.93;5.40;;;;;;;;;;4419256;32;20783;-55
2021/05/22 03:51:11;;;;;;;6.07;4.40;;;;;;;;;;4419476;32;20233;-56
2021/05/22 03:53:37;;;;;;;8.63;5.43;;;;;;;;;;4419157;32;20229;-55
2021/05/22 03:56:03;;;;;;;13.07;7.13;;;;;;;;;;4419377;32;20272;-55
2021/05/22 03:58:29;;;;;;;10.30;7.80;;;;;;;;;;4419205;32;20267;-55
2021/05/22 04:00:54;;;;;;;7.93;6.60;;;;;;;;;;4418507;32;20403;-56
2021/05/22 04:03:20;;;;;;;12.33;6.73;;;;;;;;;;4418536;32;20226;-55
2021/05/22 04:05:45;;;;;;;11.03;6.47;;;;;;;;;;4419268;32;20268;-55
2021/05/22 04:08:11;;;;;;;11.70;6.30;;;;;;;;;;4418798;32;20641;-55
2021/05/22 04:10:37;;;;;;;9.67;6.27;;;;;;;;;;4418973;32;20957;-56
2021/05/22 04:13:02;;;;;;;11.10;6.57;;;;;;;;;;4418968;32;20213;-55
2021/05/22 04:15:28;;;;;;;13.07;5.57;;;;;;;;;;4419034;32;20314;-57
2021/05/22 04:17:53;;;;;;;12.57;5.67;;;;;;;;;;4405354;32;20240;-58
2021/05/22 04:20:19;;;;;;;6.47;5.70;;;;;;;;;;4405008;32;20702;-55
2021/05/22 04:22:44;;;;;;;10.23;5.77;;;;;;;;;;4419100;32;20220;-56
2021/05/22 04:25:11;;;;;;;9.83;5.70;;;;;;;;;;4418971;32;20654;-56
2021/05/22 04:27:36;;;;;;;8.30;5.70;;;;;;;;;;4418794;32;20334;-56
2021/05/22 04:30:03;;;;;;;11.60;5.40;;;;;;;;;;4418257;32;20320;-55
2021/05/22 04:32:28;;;;;;;8.87;5.83;;;;;;;;;;4417970;32;20237;-56
2021/05/22 04:34:54;;;;;;;7.27;5.70;;;;;;;;;;4418916;32;20750;-56
2021/05/22 04:37:19;;;;;;;8.53;6.30;;;;;;;;;;4414057;32;20213;-56
2021/05/22 04:39:45;;;;;;;7.63;5.13;;;;;;;;;;4410903;32;20586;-55
2021/05/22 04:42:10;;;;;;;5.93;5.13;;;;;;;;;;4407429;32;20268;-56
2021/05/22 04:44:36;;;;;;;6.90;5.07;;;;;;;;;;4403341;32;20711;-56
2021/05/22 04:47:02;;;;;;;11.00;5.13;;;;;;;;;;4403455;32;20629;-55
2021/05/22 04:49:27;;;;;;;8.77;5.07;;;;;;;;;;4397280;32;20267;-55
2021/05/22 04:51:55;;;;;;;5.43;4.37;;;;;;;;;;4409276;32;20234;-55
2021/05/22 04:54:20;;;;;;;9.33;4.90;;;;;;;;;;4404739;32;20610;-55
2021/05/22 04:56:46;;;;;;;5.67;4.67;;;;;;;;;;4403344;32;20292;-55
2021/05/22 04:59:11;;;;;;;9.30;5.93;;;;;;;;;;4405802;32;20233;-56
2021/05/22 05:01:37;;;;;;;9.37;6.30;;;;;;;;;;4418493;32;20278;-56
2021/05/22 05:04:02;;;;;;;12.03;5.63;;;;;;;;;;4417895;32;20721;-56
2021/05/22 05:06:28;;;;;;;6.93;5.10;;;;;;;;;;4404609;32;20617;-56
2021/05/22 05:08:54;;;;;;;9.90;6.30;;;;;;;;;;4418103;32;20322;-58
2021/05/22 05:11:20;;;;;;;10.53;6.57;;;;;;;;;;4418439;32;20263;-56
2021/05/22 05:13:45;;;;;;;11.77;6.33;;;;;;;;;;4404327;32;20233;-55
2021/05/22 05:16:12;;;;;;;9.63;6.07;;;;;;;;;;4417767;32;20694;-55
2021/05/22 05:18:37;;;;;;;5.77;5.20;;;;;;;;;;4417926;32;20276;-55
2021/05/22 05:21:02;;;;;;;20.30;6.07;;;;;;;;;;4418144;32;20280;-55
2021/05/22 05:23:28;;;;;;;8.10;5.60;;;;;;;;;;4417930;32;20221;-55
2021/05/22 05:25:54;;;;;;;9.87;5.73;;;;;;;;;;4403780;32;20347;-56
2021/05/22 05:28:20;;;;;;;8.67;5.90;;;;;;;;;;4404023;32;20229;-55
2021/05/22 05:30:46;;;;;;;19.07;7.63;;;;;;;;;;4403658;32;20331;-55
2021/05/22 05:33:11;;;;;;;12.57;7.33;;;;;;;;;;4417797;32;20286;-55
2021/05/22 05:35:37;;;;;;;10.27;7.67;;;;;;;;;;4418331;32;20283;-55
2021/05/22 05:38:02;;;;;;;10.73;9.17;;;;;;;;;;4417592;32;20249;-56
2021/05/22 05:40:28;;;;;;;14.47;8.73;;;;;;;;;;4417220;32;20589;-57
2021/05/22 05:42:53;;;;;;;11.47;7.77;;;;;;;;;;4417372;32;20440;-57
2021/05/22 05:45:19;;;;;;;11.80;8.83;;;;;;;;;;4417656;32;20272;-56
2021/05/22 05:47:44;;;;;;;11.43;8.20;;;;;;;;;;4417618;32;20229;-56
2021/05/22 05:50:10;;;;;;;25.20;7.03;;;;;;;;;;4417845;32;20269;-56
2021/05/22 05:52:36;;;;;;;17.20;8.27;;;;;;;;;;4417059;32;20284;-56
2021/05/22 05:55:01;;;;;;;12.27;6.43;;;;;;;;;;4417257;32;20304;-55
2021/05/22 05:57:26;;;;;;;7.03;6.23;;;;;;;;;;4417935;32;20330;-55
2021/05/22 05:59:52;;;;;;;12.73;7.37;;;;;;;;;;4417340;32;20221;-55
2021/05/22 06:02:17;;;;;;;8.60;7.63;;;;;;;;;;4403655;32;20752;-55
2021/05/22 06:04:43;;;;;;;10.27;8.47;;;;;;;;;;4416498;32;20395;-54
2021/05/22 06:07:08;;;;;;;9.17;7.83;;;;;;;;;;4417350;32;20259;-54
2021/05/22 06:09:34;;;;;;;13.57;8.33;;;;;;;;;;4417598;32;20288;-56
2021/05/22 06:12:00;;;;;;;13.63;8.20;;;;;;;;;;4417574;32;20282;-54
2021/05/22 06:14:31;;;;;;;8.77;7.70;;;;;;;;;;4417271;32;20208;-55
2021/05/22 06:16:56;;;;;;;11.17;8.00;;;;;;;;;;4416919;32;20355;-54
2021/05/22 06:19:22;;;;;;;10.17;7.90;;;;;;;;;;4417192;32;20239;-56
2021/05/22 06:21:47;;;;;;;14.83;8.57;;;;;;;;;;4417432;32;20236;-54
2021/05/22 06:24:12;;;;;;;11.77;7.57;;;;;;;;;;4417075;32;20347;-54
2021/05/22 06:26:38;;;;;;;19.23;8.70;;;;;;;;;;4417237;32;20284;-54
2021/05/22 06:29:03;;;;;;;10.53;7.10;;;;;;;;;;4416934;32;20602;-54
2021/05/22 06:31:29;;;;;;;12.40;8.07;;;;;;;;;;4416825;32;20732;-54
2021/05/22 06:33:54;;;;;;;9.10;7.03;;;;;;;;;;4417224;32;20212;-56
2021/05/22 06:36:20;;;;;;;9.93;8.63;;;;;;;;;;4417385;32;20242;-54
2021/05/22 06:38:45;;;;;;;13.13;7.60;;;;;;;;;;4416981;32;20221;-53
2021/05/22 06:41:11;;;;;;;8.77;7.33;;;;;;;;;;4416690;32;20289;-55
2021/05/22 06:43:36;;;;;;;10.37;7.47;;;;;;;;;;4416955;32;20276;-56
2021/05/22 06:46:46;;;;;;;10.73;6.93;;;;;;;;;;4416817;32;20365;-55
2021/05/22 06:48:47;;;;;;;15.00;8.87;;;;;;;;;;4416888;32;20237;-55
2021/05/22 06:51:13;;;;;;;15.33;9.07;;;;;;;;;;4417189;32;20264;-55
2021/05/22 06:53:39;;;;;;;11.63;8.03;;;;;;;;;;4419193;32;20209;-55
2021/05/22 06:56:04;;;;;;;12.17;7.43;;;;;;;;;;4420227;32;20310;-55
2021/05/22 06:58:30;;;;;;;11.63;8.10;;;;;;;;;;4420217;32;20217;-55
2021/05/22 07:00:57;;;;;;;9.27;6.57;;;;;;;;;;4419669;32;20318;-55
2021/05/22 07:03:22;;;;;;;22.90;7.30;;;;;;;;;;4419986;32;20302;-55
2021/05/22 07:05:49;;;;;;;10.03;7.13;;;;;;;;;;4420194;32;20193;-55
2021/05/22 07:08:15;;;;;;;15.00;7.67;;;;;;;;;;4420001;32;20637;-56
2021/05/22 07:10:40;;;;;;;10.93;6.70;;;;;;;;;;4406092;32;20326;-56
2021/05/22 07:13:06;;;;;;;7.73;5.93;;;;;;;;;;4419641;32;20260;-55
2021/05/22 07:15:31;;;;;;;9.03;6.07;;;;;;;;;;4419801;32;20318;-55
2021/05/22 07:17:57;;;;;;;17.07;6.47;;;;;;;;;;4416259;32;20305;-55
2021/05/22 07:20:23;;;;;;;7.30;6.03;;;;;;;;;;4419031;32;20716;-56
2021/05/22 07:22:50;;;;;;;11.07;5.17;;;;;;;;;;4420021;32;20293;-55
2021/05/22 07:25:16;;;;;;;6.37;4.80;;;;;;;;;;4419706;32;20261;-55
2021/05/22 07:27:42;;;;;;;6.43;4.70;;;;;;;;;;4419849;32;20921;-55
2021/05/22 07:30:10;;;;;;;11.93;5.03;;;;;;;;;;4405489;32;20356;-56
2021/05/22 07:32:37;;;;;;;19.00;5.43;;;;;;;;;;4404537;32;20258;-55
2021/05/22 07:35:05;;;;;;;7.47;5.40;;;;;;;;;;4404582;32;20213;-55
2021/05/22 07:37:30;;;;;;;12.17;5.90;;;;;;;;;;4390513;32;20750;-56
2021/05/22 07:39:57;;;;;;;7.73;5.93;;;;;;;;;;4404197;32;20412;-55
2021/05/22 07:42:24;;;;;;;11.13;5.33;;;;;;;;;;4404415;32;20654;-55
2021/05/22 07:44:51;;;;;;;5.70;4.80;;;;;;;;;;4403967;32;20241;-55
2021/05/22 07:47:16;;;;;;;6.60;4.97;;;;;;;;;;4404447;32;20570;-54
2021/05/22 07:49:42;;;;;;;6.60;5.00;;;;;;;;;;4404058;32;20213;-54
2021/05/22 07:52:10;;;;;;;9.70;4.63;;;;;;;;;;4404149;32;20232;-54
2021/05/22 07:54:39;;;;;;;9.07;5.47;;;;;;;;;;4415170;32;20282;-54
2021/05/22 07:57:07;;;;;;;9.70;5.43;;;;;;;;;;4419035;32;20363;-53
2021/05/22 07:59:33;;;;;;;12.73;5.30;;;;;;;;;;4418629;32;20326;-55
2021/05/22 08:01:59;;;;;;;9.70;4.83;;;;;;;;;;4418945;32;20553;-54
2021/05/22 08:04:25;;;;;;;8.10;4.70;;;;;;;;;;4417782;32;20369;-54
2021/05/22 08:06:50;;;;;;;5.50;4.37;;;;;;;;;;4418687;32;20237;-55
2021/05/22 08:09:16;;;;;;;7.90;4.53;;;;;;;;;;4418814;32;20564;-53
2021/05/22 08:11:41;;;;;;;6.37;4.47;;;;;;;;;;4418897;32;20263;-54
2021/05/22 08:14:07;;;;;;;9.70;4.37;;;;;;;;;;4418903;32;20318;-54
2021/05/22 08:16:34;;;;;;;5.43;4.60;;;;;;;;;;4418392;32;20317;-54
2021/05/22 08:18:59;;;;;;;8.03;4.67;;;;;;;;;;4418343;32;20232;-54
2021/05/22 08:21:25;;;;;;;15.97;5.07;;;;;;;;;;4418570;32;20228;-54
2021/05/22 08:23:51;;;;;;;4.43;3.80;;;;;;;;;;4416972;32;20563;-54
2021/05/22 08:26:17;;;;;;;7.47;4.40;;;;;;;;;;4403819;32;20307;-54
2021/05/22 08:28:42;;;;;;;4.60;4.03;;;;;;;;;;4417929;32;20235;-54
2021/05/22 08:31:08;;;;;;;6.70;4.20;;;;;;;;;;4412355;32;20289;-54
2021/05/22 08:33:33;;;;;;;7.07;4.30;;;;;;;;;;4403356;32;20687;-55
2021/05/22 08:35:59;;;;;;;8.18;4.25;;;;;;;;;;4403093;32;20685;-54
2021/05/22 08:38:24;;;;;;;7.47;4.28;;;;;;;;;;4402998;32;20218;-54
2021/05/22 08:40:50;;;;;;;6.97;4.22;;;;;;;;;;4389131;32;20686;-56
2021/05/22 08:43:15;;;;;;;7.43;3.87;;;;;;;;;;4403282;32;20721;-54
2021/05/22 08:45:42;;;;;;;10.13;4.07;;;;;;;;;;4402204;32;20225;-54
2021/05/22 08:48:08;;;;;;;8.48;3.95;;;;;;;;;;4402713;32;20292;-54
2021/05/22 08:50:34;;;;;;;4.30;3.90;;;;;;;;;;4403060;32;20685;-54
2021/05/22 08:52:59;;;;;;;6.70;4.12;;;;;;;;;;4402648;32;20261;-55
2021/05/22 08:55:25;;;;;;;11.93;4.10;;;;;;;;;;4403168;32;20276;-54
2021/05/22 08:57:51;;;;;;;5.93;3.60;;;;;;;;;;4402613;32;20310;-52
2021/05/22 09:00:22;;;;;;;5.82;3.65;;;;;;;;;;4398422;32;20347;-52
2021/05/22 09:02:48;;;;;;;4.82;3.70;;;;;;;;;;4418160;32;20350;-52
2021/05/22 09:05:20;;;;;;;11.68;3.30;;;;;;;;;;4417972;32;20710;-52
2021/05/22 09:07:52;;;;;;;6.32;3.10;;;;;;;;;;4417663;32;20310;-52
2021/05/22 09:10:22;;;;;;;4.45;3.60;;;;;;;;;;4417766;32;20248;-51
2021/05/22 09:12:51;;;;;;;4.68;3.05;;;;;;;;;;4418272;32;20562;-50
2021/05/22 09:15:21;;;;;;;4.57;3.35;;;;;;;;;;4418128;32;20209;-50
2021/05/22 09:17:52;;;;;;;6.53;3.20;;;;;;;;;;4417733;32;20304;-52
2021/05/22 09:20:22;;;;;;;6.70;3.75;;;;;;;;;;4417108;32;20268;-52
2021/05/22 09:23:00;;;;;;;3.75;2.75;;;;;;;;;;4417231;32;20270;-52
2021/05/22 09:25:30;;;;;;;5.82;3.33;;;;;;;;;;4418284;32;20254;-52
2021/05/22 09:27:57;;;;;;;4.37;3.22;;;;;;;;;;4417869;32;20233;-52
2021/05/22 09:30:25;;;;;;;5.57;2.87;;;;;;;;;;4417072;32;20209;-51
2021/05/22 09:32:52;;;;;;;4.20;2.70;;;;;;;;;;4402281;32;20412;-51
2021/05/22 09:35:18;;;;;;;4.15;2.80;;;;;;;;;;4402749;32;20648;-51
2021/05/22 09:37:49;;;;;;;3.25;2.92;;;;;;;;;;4402331;32;20302;-51
2021/05/22 09:40:21;;;;;;;7.47;3.97;;;;;;;;;;4402821;32;20280;-51
2021/05/22 09:42:47;;;;;;;10.80;2.92;;;;;;;;;;4388846;32;20332;-52
2021/05/22 09:45:21;;;;;;;12.63;4.20;;;;;;;;;;4402649;32;20273;-52
2021/05/22 09:47:47;;;;;;;3.58;2.67;;;;;;;;;;4402039;32;20264;-52
2021/05/22 09:50:26;;;;;;;4.62;3.15;;;;;;;;;;4402315;32;20298;-52
2021/05/22 09:52:53;;;;;;;10.85;3.85;;;;;;;;;;4402948;32;20633;-51
2021/05/22 09:55:19;;;;;;;4.55;3.22;;;;;;;;;;4417238;32;20202;-52
2021/05/22 09:57:45;;;;;;;6.50;2.97;;;;;;;;;;4417291;32;20225;-51
2021/05/22 10:00:16;;;;;;;5.45;3.72;;;;;;;;;;4417352;32;20326;-52
2021/05/22 10:03:07;;;;;;;5.22;2.65;;;;;;;;;;4417249;32;20278;-51
2021/05/22 10:05:33;;;;;;;6.62;3.10;;;;;;;;;;4415081;32;20233;-51
2021/05/22 10:08:00;;;;;;;3.47;2.50;;;;;;;;;;4403260;32;20570;-51
2021/05/22 10:10:41;;;;;;;4.85;2.90;;;;;;;;;;4417033;32;20502;-51
2021/05/22 10:13:07;;;;;;;3.95;3.08;;;;;;;;;;4417298;32;20217;-52
2021/05/22 10:15:33;;;;;;;7.50;3.87;;;;;;;;;;4417098;32;20268;-52
2021/05/22 10:17:59;;;;;;;5.30;2.70;;;;;;;;;;4416939;32;20252;-51
2021/05/22 10:20:24;;;;;;;9.63;2.58;;;;;;;;;;4417087;32;20318;-54
2021/05/22 10:22:50;;;;;;;4.40;3.15;;;;;;;;;;4417618;32;20291;-52
2021/05/22 10:25:16;;;;;;;3.92;2.65;;;;;;;;;;4403403;32;20292;-53
2021/05/22 10:27:41;;;;;;;3.75;2.62;;;;;;;;;;4416309;32;20221;-52
2021/05/22 10:30:08;;;;;;;5.80;2.50;;;;;;;;;;4417284;32;20357;-52
2021/05/22 10:32:37;;;;;;;6.62;2.30;;;;;;;;;;4402662;32;20248;-52
2021/05/22 10:35:17;;;;;;;6.03;2.60;;;;;;;;;;4402071;32;20693;-52
2021/05/22 10:37:50;;;;;;;3.95;3.10;;;;;;;;;;4402044;32;20290;-52
2021/05/22 10:40:20;;;;;;;6.18;2.80;;;;;;;;;;4402110;32;20236;-51
2021/05/22 10:42:48;;;;;;;11.02;3.35;;;;;;;;;;4401960;32;20298;-53
2021/05/22 10:45:31;;;;;;;2.35;2.10;;;;;;;;;;4401695;32;20202;-51
2021/05/22 10:47:59;;;;;;;3.08;2.20;;;;;;;;;;4401788;32;20679;-52
2021/05/22 10:50:37;;;;;;;2.08;1.85;;;;;;;;;;4402031;32;20248;-51
2021/05/22 10:53:32;;;;;;;3.95;2.55;;;;;;;;;;4403566;32;20308;-51
2021/05/22 10:56:15;;;;;;;2.30;2.10;;;;;;;;;;4416618;32;20310;-53
2021/05/22 10:59:06;;;;;;;6.03;1.90;;;;;;;;;;4416968;32;20197;-52
2021/05/22 11:01:35;;;;;;;6.97;2.30;;;;;;;;;;4377835;32;20492;-52
2021/05/22 11:06:38;;;;;;;4.03;2.03;;;;;;;;;;4401683;32;20685;-51
2021/05/22 11:09:29;;;;;;;2.47;1.62;;;;;;;;;;4401864;32;20650;-51
2021/05/22 11:11:59;;;;;;;2.20;2.00;;;;;;;;;;4401843;32;20558;-51
2021/05/22 11:14:40;;;;;;;5.47;2.20;;;;;;;;;;4401709;32;20261;-51
2021/05/22 11:17:21;;;;;;;4.10;2.65;;;;;;;;;;4387676;32;20771;-51
2021/05/22 11:20:05;;;;;;;4.68;2.50;;;;;;;;;;4413041;32;20399;-51
2021/05/22 11:22:32;;;;;;;1.77;1.60;;;;;;;;;;4417289;32;20232;-52
2021/05/22 11:25:00;;;;;;;2.92;1.80;;;;;;;;;;4417097;32;20433;-52
2021/05/22 11:27:48;;;;;;;5.78;1.70;;;;;;;;;;4416329;32;20248;-52
2021/05/22 11:30:38;;;;;;;1.85;1.62;;;;;;;;;;4416352;32;20292;-52
2021/05/22 11:33:09;;;;;;;4.47;1.98;;;;;;;;;;4401131;32;20296;-52
2021/05/22 11:35:39;;;;;;;3.58;1.58;;;;;;;;;;4401880;32;20186;-52
2021/05/22 11:38:10;;;;;;;4.72;1.40;;;;;;;;;;4401371;32;20291;-52
2021/05/22 11:40:56;;;;;;;2.45;1.45;;;;;;;;;;4403704;32;20789;-52
2021/05/22 11:43:29;;;;;;;2.03;1.80;;;;;;;;;;4403598;32;20287;-52
2021/05/22 11:46:07;;;;;;;3.05;1.75;;;;;;;;;;4404418;32;20251;-52
2021/05/22 11:48:37;;;;;;;4.32;1.70;;;;;;;;;;4404104;32;20197;-52
2021/05/22 11:51:12;;;;;;;7.32;2.10;;;;;;;;;;4404002;32;20193;-52
2021/05/22 11:53:40;;;;;;;5.95;2.00;;;;;;;;;;4404473;32;20224;-52
2021/05/22 11:56:09;;;;;;;6.90;2.45;;;;;;;;;;4404198;32;20229;-51
2021/05/22 11:58:37;;;;;;;7.00;2.30;;;;;;;;;;4403839;32;20202;-52
2021/05/22 12:01:12;;;;;;;2.50;1.67;;;;;;;;;;4418268;32;20276;-52
2021/05/22 12:03:38;;;;;;;2.00;1.50;;;;;;;;;;4419003;32;20679;-52
2021/05/22 12:06:06;;;;;;;13.68;1.67;;;;;;;;;;4419231;32;20224;-51
2021/05/22 12:08:33;;;;;;;6.65;1.30;;;;;;;;;;4419242;32;20201;-52
2021/05/22 12:11:10;;;;;;;2.00;1.30;;;;;;;;;;4419277;32;20223;-52
2021/05/22 12:13:52;;;;;;;7.97;1.70;;;;;;;;;;4419154;32;20200;-51
2021/05/22 12:16:18;;;;;;;1.48;1.05;;;;;;;;;;4418865;32;20664;-52
2021/05/22 12:18:44;;;;;;;1.75;1.10;;;;;;;;;;4418800;32;20235;-52
2021/05/22 12:21:09;;;;;;;5.60;1.30;;;;;;;;;;4419203;32;20347;-52
2021/05/22 12:23:36;;;;;;;3.15;1.45;;;;;;;;;;4418797;32;20252;-52
2021/05/22 12:26:03;;;;;;;2.15;1.42;;;;;;;;;;4404470;32;20222;-51
2021/05/22 12:28:29;;;;;;;2.47;1.20;;;;;;;;;;4418847;32;20519;-52
2021/05/22 12:30:58;;;;;;;4.10;1.40;;;;;;;;;;4414291;32;20298;-52
2021/05/22 12:33:24;;;;;;;2.12;1.30;;;;;;;;;;4403430;32;20639;-51
2021/05/22 12:36:08;;;;;;;6.18;2.47;;;;;;;;;;4403243;32;20213;-52
2021/05/22 12:38:38;;;;;;;1.67;1.40;;;;;;;;;;4402875;32;20325;-52
2021/05/22 12:41:04;;;;;;;2.03;1.62;;;;;;;;;;4408902;32;20431;-53
2021/05/22 12:43:48;;;;;;;2.47;1.55;;;;;;;;;;4410438;32;20243;-52
2021/05/22 12:46:26;;;;;;;2.83;1.20;;;;;;;;;;4395418;32;20307;-52
2021/05/22 12:48:52;;;;;;;5.85;1.30;;;;;;;;;;4409077;32;20273;-52
2021/05/22 12:51:21;;;;;;;2.78;1.50;;;;;;;;;;4395070;32;20319;-53
2021/05/22 12:53:46;;;;;;;5.30;1.27;;;;;;;;;;4410718;32;20201;-53
2021/05/22 12:56:12;;;;;;;3.35;1.70;;;;;;;;;;4410554;32;20308;-53
2021/05/22 12:58:38;;;;;;;1.40;1.30;;;;;;;;;;4417994;32;20194;-53
2021/05/22 13:01:18;;;;;;;3.55;1.48;;;;;;;;;;4417769;32;20327;-52
2021/05/22 13:03:49;;;;;;;2.53;1.20;;;;;;;;;;4417998;32;20698;-52
2021/05/22 13:06:34;;;;;;;1.65;1.40;;;;;;;;;;4416958;32;20229;-53
2021/05/22 13:09:07;;;;;;;2.10;1.20;;;;;;;;;;4418147;32;20244;-52
2021/05/22 13:11:32;;;;;;;1.60;1.10;;;;;;;;;;4413362;32;20217;-52
2021/05/22 13:14:02;;;;;;;1.83;1.30;;;;;;;;;;4409759;32;20317;-52
2021/05/22 13:16:28;;;;;;;2.53;1.27;;;;;;;;;;4408989;32;20319;-53
2021/05/22 13:18:56;;;;;;;2.58;1.08;;;;;;;;;;4410539;32;20237;-53
2021/05/22 13:21:29;;;;;;;14.40;1.73;;;;;;;;;;4408330;32;20256;-52
2021/05/22 13:23:55;;;;;;;3.22;1.60;;;;;;;;;;4408666;32;20311;-53
2021/05/22 13:26:28;;;;;;;3.25;1.10;;;;;;;;;;4395842;32;20601;-53
2021/05/22 13:28:58;;;;;;;2.95;1.30;;;;;;;;;;4409730;32;20283;-54
2021/05/22 13:31:30;;;;;;;2.75;1.33;;;;;;;;;;4409089;32;20325;-53
2021/05/22 13:34:08;;;;;;;4.43;1.20;;;;;;;;;;4395241;32;20345;-53
2021/05/22 13:36:37;;;;;;;4.90;1.35;;;;;;;;;;4409234;32;20243;-53
2021/05/22 13:39:09;;;;;;;2.03;1.00;;;;;;;;;;4408243;32;20641;-53
2021/05/22 13:41:38;;;;;;;6.43;1.55;;;;;;;;;;4394703;32;20285;-53
2021/05/22 13:44:06;;;;;;;2.53;1.60;;;;;;;;;;4408395;32;20291;-53
2021/05/22 13:46:32;;;;;;;2.55;1.25;;;;;;;;;;4408664;32;20246;-53
2021/05/22 13:48:58;;;;;;;5.90;1.55;;;;;;;;;;4409787;32;20248;-53
2021/05/22 13:51:26;;;;;;;4.43;1.67;;;;;;;;;;4408773;32;20229;-53
2021/05/22 13:53:52;;;;;;;4.93;0.90;;;;;;;;;;4410549;32;20681;-52
2021/05/22 13:56:20;;;;;;;2.22;1.17;;;;;;;;;;4409791;32;20733;-52
2021/05/22 13:58:46;;;;;;;2.97;1.20;;;;;;;;;;4408635;32;20241;-52
2021/05/22 14:01:11;;;;;;;2.12;1.30;;;;;;;;;;4403717;32;20229;-52
2021/05/22 14:03:40;;;;;;;1.60;1.30;;;;;;;;;;4416951;32;20286;-52
2021/05/22 14:06:06;;;;;;;1.85;1.10;;;;;;;;;;4417737;32;20217;-52
2021/05/22 14:08:32;;;;;;;2.55;1.30;;;;;;;;;;4417742;32;20213;-52
2021/05/22 14:10:57;;;;;;;3.22;0.80;;;;;;;;;;4417306;32;20523;-52
2021/05/22 14:13:23;;;;;;;1.58;0.80;;;;;;;;;;4417699;32;20550;-52
2021/05/22 14:15:48;;;;;;;2.12;1.10;;;;;;;;;;4417493;32;20309;-53
2021/05/22 14:18:14;;;;;;;4.20;1.48;;;;;;;;;;4417705;32;20342;-52
2021/05/22 14:20:39;;;;;;;2.10;1.30;;;;;;;;;;4417824;32;20313;-52
2021/05/22 14:23:05;;;;;;;5.72;1.73;;;;;;;;;;4417189;32;20273;-53
2021/05/22 14:25:30;;;;;;;7.12;1.80;;;;;;;;;;4417320;32;20214;-53
2021/05/22 14:27:56;;;;;;;13.05;2.25;;;;;;;;;;4417386;32;20628;-53
2021/05/22 14:30:22;;;;;;;6.68;1.40;;;;;;;;;;4416568;32;20680;-53
2021/05/22 14:32:47;;;;;;;4.62;0.98;;;;;;;;;;4402182;32;20292;-52
2021/05/22 14:35:18;;;;;;;2.42;1.00;;;;;;;;;;4402541;32;20303;-53
2021/05/22 14:37:43;;;;;;;3.58;1.30;;;;;;;;;;4402272;32;20293;-53
2021/05/22 14:40:10;;;;;;;6.03;1.60;;;;;;;;;;4402207;32;20306;-53
2021/05/22 14:42:36;;;;;;;10.40;1.30;;;;;;;;;;4402113;32;20221;-53
2021/05/22 14:45:05;;;;;;;5.15;1.42;;;;;;;;;;4402396;32;20575;-53
2021/05/22 14:47:31;;;;;;;2.25;0.88;;;;;;;;;;4402188;32;20253;-53